createdAt,value
2022-07-27T00:01:05.997Z,96613.75
2022-07-27T00:03:34.016Z,96615.41
2022-07-27T00:06:03.331Z,96619.47
2022-07-27T00:08:31.200Z,96623.19
2022-07-27T00:10:59.183Z,96620.53
2022-07-27T00:13:27.427Z,96615.19
2022-07-27T00:15:55.428Z,96609.81
2022-07-27T00:18:23.777Z,96621.25
2022-07-27T00:20:51.772Z,96618.56
2022-07-27T00:23:21.283Z,96614.00
2022-07-27T00:25:49.174Z,96617.38
2022-07-27T00:28:17.181Z,96610.41
2022-07-27T00:30:45.169Z,96611.91
2022-07-27T00:33:17.196Z,96613.47
2022-07-27T00:35:45.961Z,96599.84
2022-07-27T00:38:14.045Z,96591.63
2022-07-27T00:40:43.656Z,96599.84
2022-07-27T00:43:11.605Z,96599.28
2022-07-27T00:45:39.552Z,96605.59
2022-07-27T00:48:07.574Z,96603.28
2022-07-27T00:50:36.233Z,96604.09
2022-07-27T00:53:06.009Z,96602.06
2022-07-27T00:55:34.308Z,96603.72
2022-07-27T00:58:05.816Z,96600.97
2022-07-27T01:00:33.801Z,96600.97
2022-07-27T01:03:05.696Z,96592.72
2022-07-27T01:05:43.086Z,96594.56
2022-07-27T01:08:13.857Z,96592.25
2022-07-27T01:10:44.182Z,96593.63
2022-07-27T01:13:13.983Z,96590.13
2022-07-27T01:15:43.749Z,96585.28
2022-07-27T01:18:13.723Z,96586.94
2022-07-27T01:20:42.945Z,96579.25
2022-07-27T01:23:12.241Z,96578.44
2022-07-27T01:25:42.615Z,96578.13
2022-07-27T01:28:10.590Z,96587.03
2022-07-27T01:30:38.632Z,96582.38
2022-07-27T01:33:08.472Z,96580.38
2022-07-27T01:35:37.848Z,96577.53
2022-07-27T01:38:06.367Z,96574.94
2022-07-27T01:40:36.863Z,96571.06
2022-07-27T01:43:05.120Z,96565.72
2022-07-27T01:45:33.120Z,96564.06
2022-07-27T01:48:01.122Z,96560.16
2022-07-27T01:50:29.331Z,96553.63
2022-07-27T01:52:57.250Z,96554.78
2022-07-27T01:55:25.203Z,96551.09
2022-07-27T01:57:54.504Z,96551.44
2022-07-27T02:00:22.507Z,96543.56
2022-07-27T02:02:50.531Z,96546.47
2022-07-27T02:05:18.522Z,96544.78
2022-07-27T02:07:46.577Z,96540.72
2022-07-27T02:10:14.663Z,96543.78
2022-07-27T02:12:41.580Z,96542.25
2022-07-27T02:15:14.964Z,96541.72
2022-07-27T02:17:45.017Z,96541.44
2022-07-27T02:20:14.864Z,96539.09
2022-07-27T02:22:43.024Z,96541.25
2022-07-27T02:25:13.380Z,96541.78
2022-07-27T02:27:43.673Z,96549.00
2022-07-27T02:30:14.949Z,96539.97
2022-07-27T02:32:46.025Z,96547.34
2022-07-27T02:35:18.961Z,96541.84
2022-07-27T02:37:48.207Z,96541.19
2022-07-27T02:40:18.020Z,96535.00
2022-07-27T02:42:46.556Z,96542.53
2022-07-27T02:45:17.006Z,96547.75
2022-07-27T02:47:45.730Z,96545.81
2022-07-27T02:50:13.858Z,96552.00
2022-07-27T02:52:41.970Z,96547.97
2022-07-27T02:55:10.957Z,96550.88
2022-07-27T02:57:41.306Z,96548.03
2022-07-27T03:00:12.505Z,96538.22
2022-07-27T03:02:42.052Z,96535.34
2022-07-27T03:05:11.776Z,96536.69
2022-07-27T03:07:39.904Z,96529.31
2022-07-27T03:10:08.757Z,96535.03
2022-07-27T03:12:36.668Z,96538.59
2022-07-27T03:15:05.394Z,96548.94
2022-07-27T03:17:33.934Z,96540.75
2022-07-27T03:20:03.347Z,96545.94
2022-07-27T03:22:32.636Z,96541.81
2022-07-27T03:25:01.293Z,96539.28
2022-07-27T03:27:29.821Z,96538.47
2022-07-27T03:29:58.405Z,96528.75
2022-07-27T03:32:26.481Z,96536.47
2022-07-27T03:34:54.480Z,96543.78
2022-07-27T03:37:23.730Z,96540.78
2022-07-27T03:39:51.641Z,96544.16
2022-07-27T03:42:19.593Z,96548.97
2022-07-27T03:44:47.508Z,96545.84
2022-07-27T03:47:15.503Z,96538.16
2022-07-27T03:49:43.449Z,96547.34
2022-07-27T03:52:17.223Z,96546.50
2022-07-27T03:54:47.428Z,96546.19
2022-07-27T03:57:15.923Z,96551.03
2022-07-27T03:59:43.903Z,96546.34
2022-07-27T04:02:12.019Z,96551.53
2022-07-27T04:04:39.942Z,96554.38
2022-07-27T04:07:08.551Z,96557.88
2022-07-27T04:09:37.656Z,96563.88
2022-07-27T04:12:09.232Z,96556.06
2022-07-27T04:14:37.237Z,96563.22
2022-07-27T04:17:05.693Z,96558.53
2022-07-27T04:19:33.830Z,96552.34
2022-07-27T04:22:01.714Z,96558.72
2022-07-27T04:24:29.695Z,96564.56
2022-07-27T04:26:57.561Z,96561.22
2022-07-27T04:29:27.002Z,96557.22
2022-07-27T04:31:54.981Z,96563.91
2022-07-27T04:34:22.882Z,96556.88
2022-07-27T04:36:51.402Z,96563.91
2022-07-27T04:39:19.462Z,96571.44
2022-07-27T04:41:47.401Z,96569.09
2022-07-27T04:44:15.367Z,96567.56
2022-07-27T04:46:44.722Z,96563.91
2022-07-27T04:49:13.078Z,96568.41
2022-07-27T04:51:43.932Z,96570.91
2022-07-27T04:54:12.322Z,96580.28
2022-07-27T04:56:40.602Z,96588.28
2022-07-27T04:59:08.771Z,96586.97
2022-07-27T05:01:37.005Z,96593.81
2022-07-27T05:04:06.618Z,96586.94
2022-07-27T05:06:34.617Z,96593.97
2022-07-27T05:09:02.550Z,96588.13
2022-07-27T05:11:30.584Z,96601.66
2022-07-27T05:13:58.660Z,96598.28
2022-07-27T05:16:29.119Z,96598.66
2022-07-27T05:18:57.592Z,96593.44
2022-07-27T05:21:29.226Z,96591.09
2022-07-27T05:23:57.183Z,96598.78
2022-07-27T05:26:25.119Z,96605.50
2022-07-27T05:28:53.251Z,96597.28
2022-07-27T05:31:21.303Z,96607.50
2022-07-27T05:33:54.634Z,96608.00
2022-07-27T05:36:27.282Z,96613.19
2022-07-27T05:38:55.256Z,96613.34
2022-07-27T05:41:24.838Z,96618.34
2022-07-27T05:43:56.694Z,96612.50
2022-07-27T05:46:27.349Z,96617.88
2022-07-27T05:48:57.717Z,96613.38
2022-07-27T05:51:27.171Z,96620.72
2022-07-27T05:53:55.123Z,96623.06
2022-07-27T05:56:23.408Z,96615.03
2022-07-27T05:58:51.340Z,96620.69
2022-07-27T06:01:19.290Z,96619.56
2022-07-27T06:03:47.280Z,96618.69
2022-07-27T06:06:33.386Z,96628.38
2022-07-27T06:09:05.093Z,96614.34
2022-07-27T06:11:33.021Z,96619.88
2022-07-27T06:14:00.915Z,96628.06
2022-07-27T06:16:29.315Z,96641.91
2022-07-27T06:18:57.289Z,96641.06
2022-07-27T06:21:26.512Z,96637.72
2022-07-27T06:23:55.079Z,96636.00
2022-07-27T06:26:24.478Z,96637.84
2022-07-27T06:28:58.575Z,96642.19
2022-07-27T06:31:28.367Z,96642.84
2022-07-27T06:34:03.769Z,96648.53
2022-07-27T06:36:32.585Z,96647.03
2022-07-27T06:39:00.647Z,96647.34
2022-07-27T06:41:30.269Z,96639.44
2022-07-27T06:43:58.208Z,96640.22
2022-07-27T06:46:26.213Z,96647.59
2022-07-27T06:48:56.725Z,96643.41
2022-07-27T06:51:25.107Z,96637.03
2022-07-27T06:53:54.429Z,96643.06
2022-07-27T06:56:23.109Z,96649.91
2022-07-27T06:58:52.802Z,96650.78
2022-07-27T07:01:20.741Z,96642.59
2022-07-27T07:03:48.790Z,96642.38
2022-07-27T07:06:16.886Z,96632.78
2022-07-27T07:08:44.821Z,96639.44
2022-07-27T07:11:14.072Z,96652.44
2022-07-27T07:13:44.903Z,96650.44
2022-07-27T07:16:15.187Z,96640.47
2022-07-27T07:18:43.256Z,96641.56
2022-07-27T07:21:11.224Z,96638.16
2022-07-27T07:23:39.152Z,96642.41
2022-07-27T07:26:07.088Z,96636.13
2022-07-27T07:28:36.257Z,96639.28
2022-07-27T07:31:04.357Z,96634.84
2022-07-27T07:33:33.736Z,96637.75
2022-07-27T07:36:13.912Z,96626.66
2022-07-27T07:38:42.844Z,96624.13
2022-07-27T07:41:10.928Z,96632.47
2022-07-27T07:43:39.804Z,96627.22
2022-07-27T07:46:08.678Z,96627.00
2022-07-27T07:48:39.570Z,96627.00
2022-07-27T07:51:07.621Z,96628.47
2022-07-27T07:53:39.301Z,96639.78
2022-07-27T07:56:10.217Z,96634.25
2022-07-27T07:58:38.505Z,96634.66
2022-07-27T08:01:06.564Z,96631.75
2022-07-27T08:03:34.571Z,96635.50
2022-07-27T08:06:03.914Z,96639.22
2022-07-27T08:08:31.845Z,96640.56
2022-07-27T08:10:59.749Z,96648.13
2022-07-27T08:13:27.758Z,96635.63
2022-07-27T08:15:55.993Z,96638.06
2022-07-27T08:18:23.909Z,96650.38
2022-07-27T08:20:51.868Z,96650.38
2022-07-27T08:23:21.234Z,96649.38
2022-07-27T08:25:49.177Z,96644.59
2022-07-27T08:28:17.099Z,96651.09
2022-07-27T08:30:46.521Z,96645.00
2022-07-27T08:33:14.500Z,96655.72
2022-07-27T08:35:42.553Z,96648.25
2022-07-27T08:38:10.911Z,96653.72
2022-07-27T08:40:45.168Z,96653.53
2022-07-27T08:43:23.690Z,96643.84
2022-07-27T08:45:54.781Z,96651.22
2022-07-27T08:48:23.866Z,96654.38
2022-07-27T08:50:52.237Z,96644.03
2022-07-27T08:53:20.731Z,96645.88
2022-07-27T08:55:50.431Z,96646.25
2022-07-27T08:58:18.598Z,96649.03
2022-07-27T09:00:48.101Z,96650.72
2022-07-27T09:03:20.294Z,96645.59
2022-07-27T09:05:51.377Z,96645.69
2022-07-27T09:08:24.148Z,96652.28
2022-07-27T09:10:55.650Z,96652.38
2022-07-27T09:13:26.797Z,96653.59
2022-07-27T09:18:44.693Z,96657.63
2022-07-27T09:21:16.193Z,96652.19
2022-07-27T09:23:47.801Z,96648.47
2022-07-27T09:26:35.834Z,96658.47
2022-07-27T09:29:06.186Z,96661.16
2022-07-27T09:31:41.763Z,96661.16
2022-07-27T09:34:10.387Z,96648.13
2022-07-27T09:36:51.501Z,96654.06
2022-07-27T09:39:20.535Z,96665.66
2022-07-27T09:41:52.471Z,96667.94
2022-07-27T09:44:43.650Z,96666.47
2022-07-27T09:47:26.478Z,96670.25
2022-07-27T09:49:57.819Z,96676.00
2022-07-27T09:52:27.738Z,96663.81
2022-07-27T09:54:56.685Z,96659.22
2022-07-27T09:57:26.179Z,96672.38
2022-07-27T10:00:13.716Z,96664.59
2022-07-27T10:02:43.420Z,96670.72
2022-07-27T10:05:11.870Z,96671.59
2022-07-27T10:07:40.918Z,96672.97
2022-07-27T10:10:09.748Z,96664.09
2022-07-27T10:12:39.108Z,96660.78
2022-07-27T10:15:08.424Z,96662.38
2022-07-27T10:17:38.078Z,96661.75
2022-07-27T10:20:09.739Z,96667.16
2022-07-27T10:23:01.603Z,96657.19
2022-07-27T10:25:36.484Z,96662.53
2022-07-27T10:28:13.379Z,96657.00
2022-07-27T10:30:41.567Z,96655.66
2022-07-27T10:33:17.378Z,96649.22
2022-07-27T10:35:45.536Z,96652.31
2022-07-27T10:38:18.264Z,96649.78
2022-07-27T10:40:47.318Z,96644.09
2022-07-27T10:43:21.696Z,96646.31
2022-07-27T10:46:01.793Z,96644.13
2022-07-27T10:48:43.002Z,96643.19
2022-07-27T10:51:17.554Z,96639.63
2022-07-27T10:54:22.724Z,96646.25
2022-07-27T10:56:46.185Z,96633.00
2022-07-27T10:59:16.099Z,96636.84
2022-07-27T11:01:57.727Z,96654.75
2022-07-27T11:04:25.993Z,96643.66
2022-07-27T11:07:24.154Z,96644.25
2022-07-27T11:12:37.212Z,96632.97
2022-07-27T11:15:08.590Z,96626.66
2022-07-27T11:20:27.673Z,96622.97
2022-07-27T11:23:50.052Z,96624.16
2022-07-27T11:25:58.607Z,96623.75
2022-07-27T11:28:30.320Z,96622.53
2022-07-27T11:31:03.370Z,96621.25
2022-07-27T11:33:32.183Z,96619.78
2022-07-27T11:36:01.575Z,96618.34
2022-07-27T11:38:30.152Z,96612.09
2022-07-27T11:41:12.690Z,96622.44
2022-07-27T11:43:46.072Z,96616.81
2022-07-27T11:46:19.399Z,96615.81
2022-07-27T11:49:09.224Z,96607.50
2022-07-27T11:51:39.753Z,96601.94
2022-07-27T11:54:09.553Z,96609.19
2022-07-27T11:56:39.440Z,96605.03
2022-07-27T11:59:18.407Z,96603.41
2022-07-27T12:01:51.545Z,96600.47
2022-07-27T12:04:25.331Z,96605.91
2022-07-27T12:07:04.894Z,96602.97
2022-07-27T12:09:38.140Z,96602.13
2022-07-27T12:12:15.146Z,96598.38
2022-07-27T12:14:46.735Z,96611.25
2022-07-27T12:17:22.022Z,96602.97
2022-07-27T12:19:55.036Z,96605.06
2022-07-27T12:22:32.233Z,96617.09
2022-07-27T12:25:01.883Z,96619.22
2022-07-27T12:27:30.567Z,96618.56
2022-07-27T12:30:16.691Z,96602.41
2022-07-27T12:32:46.982Z,96614.50
2022-07-27T12:35:24.598Z,96605.97
2022-07-27T12:38:01.238Z,96607.16
2022-07-27T12:40:30.547Z,96597.81
2022-07-27T12:43:01.043Z,96608.25
2022-07-27T12:45:34.597Z,96608.44
2022-07-27T12:48:08.569Z,96605.28
2022-07-27T12:50:37.138Z,96603.25
2022-07-27T12:53:05.757Z,96603.91
2022-07-27T12:55:34.242Z,96605.34
2022-07-27T12:58:02.302Z,96605.72
2022-07-27T13:00:33.804Z,96604.69
2022-07-27T13:03:03.180Z,96593.91
2022-07-27T13:05:33.215Z,96591.03
2022-07-27T13:08:02.005Z,96582.06
2022-07-27T13:10:30.379Z,96586.66
2022-07-27T13:12:59.161Z,96581.66
2022-07-27T13:15:27.658Z,96591.41
2022-07-27T13:17:55.906Z,96588.09
2022-07-27T13:20:24.496Z,96580.59
2022-07-27T13:22:54.457Z,96588.91
2022-07-27T13:25:22.742Z,96587.47
2022-07-27T13:27:51.291Z,96592.63
2022-07-27T13:30:19.756Z,96589.53
2022-07-27T13:32:48.196Z,96587.91
2022-07-27T13:35:17.890Z,96600.56
2022-07-27T13:37:46.548Z,96586.44
2022-07-27T13:40:15.965Z,96587.66
2022-07-27T13:42:43.893Z,96577.53
2022-07-27T13:45:12.428Z,96577.50
2022-07-27T13:47:41.175Z,96573.34
2022-07-27T13:50:17.412Z,96583.53
2022-07-27T13:52:46.877Z,96574.41
2022-07-27T13:55:17.598Z,96575.03
2022-07-27T13:57:46.586Z,96582.94
2022-07-27T14:00:15.643Z,96586.25
2022-07-27T14:02:44.175Z,96578.78
2022-07-27T14:05:14.246Z,96580.22
2022-07-27T14:07:43.517Z,96575.03
2022-07-27T14:10:30.645Z,96568.59
2022-07-27T14:13:07.482Z,96573.56
2022-07-27T14:15:54.473Z,96573.78
2022-07-27T14:18:25.434Z,96577.72
2022-07-27T14:20:53.598Z,96580.22
2022-07-27T14:23:21.518Z,96573.13
2022-07-27T14:25:49.770Z,96578.34
2022-07-27T14:28:19.906Z,96574.16
2022-07-27T14:30:48.710Z,96573.97
2022-07-27T14:33:17.597Z,96574.16
2022-07-27T14:35:46.016Z,96569.19
2022-07-27T14:38:14.332Z,96577.72
2022-07-27T14:40:53.531Z,96570.25
2022-07-27T14:43:23.346Z,96562.16
2022-07-27T14:45:51.297Z,96572.72
2022-07-27T14:48:32.454Z,96565.66
2022-07-27T14:51:09.401Z,96567.72
2022-07-27T14:53:37.444Z,96574.59
2022-07-27T14:56:06.116Z,96571.88
2022-07-27T14:58:35.502Z,96568.38
2022-07-27T15:01:03.513Z,96566.25
2022-07-27T15:03:31.546Z,96570.63
2022-07-27T15:05:59.479Z,96558.81
2022-07-27T15:08:27.695Z,96556.94
2022-07-27T15:10:57.284Z,96562.09
2022-07-27T15:13:25.901Z,96554.41
2022-07-27T15:15:57.246Z,96564.78
2022-07-27T15:18:25.278Z,96562.72
2022-07-27T15:20:53.181Z,96560.88
2022-07-27T15:23:22.275Z,96560.25
2022-07-27T15:25:50.329Z,96559.63
2022-07-27T15:28:18.254Z,96566.28
2022-07-27T15:30:46.328Z,96551.97
2022-07-27T15:33:15.704Z,96558.19
2022-07-27T15:35:43.698Z,96556.94
2022-07-27T15:38:11.627Z,96552.56
2022-07-27T15:40:41.548Z,96566.28
2022-07-27T15:43:12.281Z,96559.00
2022-07-27T15:45:41.332Z,96562.06
2022-07-27T15:48:11.727Z,96559.75
2022-07-27T15:50:43.213Z,96563.53
2022-07-27T15:53:12.255Z,96561.88
2022-07-27T15:55:40.227Z,96555.41
2022-07-27T15:58:08.677Z,96555.25
2022-07-27T16:00:41.112Z,96550.47
2022-07-27T16:03:10.093Z,96553.41
2022-07-27T16:05:40.127Z,96555.06
2022-07-27T16:08:09.912Z,96546.56
2022-07-27T16:10:38.749Z,96548.22
2022-07-27T16:13:07.654Z,96546.97
2022-07-27T16:15:53.851Z,96540.91
2022-07-27T16:18:22.273Z,96537.16
2022-07-27T16:20:52.133Z,96540.31
2022-07-27T16:23:21.615Z,96529.53
2022-07-27T16:26:04.091Z,96535.56
2022-07-27T16:28:34.605Z,96523.50
2022-07-27T16:31:03.382Z,96531.63
2022-07-27T16:33:31.553Z,96527.03
2022-07-27T16:36:00.931Z,96533.25
2022-07-27T16:38:29.203Z,96522.47
2022-07-27T16:40:57.143Z,96525.16
2022-07-27T16:43:37.591Z,96523.09
2022-07-27T16:46:07.698Z,96520.38
2022-07-27T16:48:41.908Z,96529.53
2022-07-27T16:51:13.364Z,96526.19
2022-07-27T16:53:43.296Z,96530.97
2022-07-27T16:56:11.962Z,96535.97
2022-07-27T16:58:40.061Z,96524.75
2022-07-27T17:01:08.761Z,96538.03
2022-07-27T17:03:37.594Z,96529.91
2022-07-27T17:06:07.200Z,96535.94
2022-07-27T17:08:36.828Z,96531.38
2022-07-27T17:11:06.432Z,96528.91
2022-07-27T17:13:35.868Z,96527.84
2022-07-27T17:16:04.892Z,96536.56
2022-07-27T17:18:39.522Z,96531.59
2022-07-27T17:21:09.534Z,96526.41
2022-07-27T17:23:39.744Z,96526.78
2022-07-27T17:26:09.459Z,96524.91
2022-07-27T17:28:39.550Z,96529.06
2022-07-27T17:31:10.277Z,96525.94
2022-07-27T17:33:39.010Z,96535.06
2022-07-27T17:36:14.005Z,96536.47
2022-07-27T17:38:44.539Z,96526.91
2022-07-27T17:41:12.759Z,96526.91
2022-07-27T17:43:41.169Z,96535.59
2022-07-27T17:46:10.721Z,96527.50
2022-07-27T17:48:39.531Z,96530.22
2022-07-27T17:51:10.425Z,96530.41
2022-07-27T17:53:39.071Z,96533.91
2022-07-27T17:56:08.610Z,96538.88
2022-07-27T17:58:36.627Z,96538.25
2022-07-27T18:01:05.197Z,96537.19
2022-07-27T18:03:33.270Z,96545.09
2022-07-27T18:06:01.525Z,96546.28
2022-07-27T18:08:29.680Z,96539.63
2022-07-27T18:10:57.807Z,96545.25
2022-07-27T18:13:39.504Z,96546.06
2022-07-27T18:16:09.295Z,96547.91
2022-07-27T18:18:37.918Z,96543.34
2022-07-27T18:21:06.462Z,96540.78
2022-07-27T18:23:34.463Z,96542.44
2022-07-27T18:26:02.561Z,96542.44
2022-07-27T18:28:39.006Z,96546.59
2022-07-27T18:33:37.011Z,96555.16
2022-07-27T18:36:06.371Z,96557.66
2022-07-27T18:38:34.451Z,96551.63
2022-07-27T18:41:03.004Z,96548.47
2022-07-27T18:43:32.372Z,96550.94
2022-07-27T18:46:00.426Z,96555.44
2022-07-27T18:48:28.808Z,96557.97
2022-07-27T18:50:57.333Z,96559.78
2022-07-27T18:53:25.427Z,96557.31
2022-07-27T18:55:56.557Z,96555.84
2022-07-27T18:58:25.795Z,96556.63
2022-07-27T19:00:55.665Z,96562.19
2022-07-27T19:03:24.534Z,96566.94
2022-07-27T19:05:54.339Z,96568.75
2022-07-27T19:08:22.646Z,96573.88
2022-07-27T19:10:51.185Z,96572.03
2022-07-27T19:13:19.187Z,96579.28
2022-07-27T19:15:47.122Z,96575.50
2022-07-27T19:18:16.438Z,96579.66
2022-07-27T19:20:44.295Z,96581.91
2022-07-27T19:23:12.308Z,96582.13
2022-07-27T19:25:40.445Z,96589.53
2022-07-27T19:28:08.387Z,96595.69
2022-07-27T19:30:38.658Z,96594.88
2022-07-27T19:33:07.024Z,96592.94
2022-07-27T19:35:36.316Z,96590.88
2022-07-27T19:38:04.864Z,96595.97
2022-07-27T19:40:44.006Z,96591.41
2022-07-27T19:43:13.128Z,96594.09
2022-07-27T19:45:41.469Z,96604.56
2022-07-27T19:48:09.529Z,96601.22
2022-07-27T19:50:39.317Z,96597.91
2022-07-27T19:53:07.214Z,96603.31
2022-07-27T19:55:35.280Z,96601.94
2022-07-27T19:58:03.217Z,96603.16
2022-07-27T20:00:31.311Z,96603.97
2022-07-27T20:02:59.299Z,96604.53
2022-07-27T20:05:27.411Z,96609.22
2022-07-27T20:07:56.679Z,96602.56
2022-07-27T20:10:25.316Z,96616.66
2022-07-27T20:12:53.677Z,96609.97
2022-07-27T20:15:22.522Z,96610.53
2022-07-27T20:17:50.830Z,96608.97
2022-07-27T20:20:18.969Z,96607.75
2022-07-27T20:22:46.920Z,96605.00
2022-07-27T20:25:17.889Z,96607.16
2022-07-27T20:27:46.064Z,96610.28
2022-07-27T20:30:16.262Z,96602.59
2022-07-27T20:32:44.627Z,96605.84
2022-07-27T20:35:12.985Z,96600.69
2022-07-27T20:37:41.124Z,96604.06
2022-07-27T20:40:11.481Z,96611.03
2022-07-27T20:42:41.488Z,96607.88
2022-07-27T20:45:11.337Z,96607.22
2022-07-27T20:47:39.532Z,96601.41
2022-07-27T20:50:09.241Z,96606.56
2022-07-27T20:52:37.470Z,96600.09
2022-07-27T20:55:06.515Z,96603.44
2022-07-27T20:57:34.397Z,96606.31
2022-07-27T21:00:04.766Z,96609.53
2022-07-27T21:02:32.987Z,96612.59
2022-07-27T21:05:01.064Z,96613.06
2022-07-27T21:07:29.045Z,96608.72
2022-07-27T21:09:56.989Z,96603.34
2022-07-27T21:12:24.885Z,96601.66
2022-07-27T21:14:52.820Z,96595.66
2022-07-27T21:17:22.093Z,96605.28
2022-07-27T21:19:49.936Z,96605.28
2022-07-27T21:22:18.300Z,96607.78
2022-07-27T21:24:45.356Z,96600.84
2022-07-27T21:27:15.429Z,96605.00
2022-07-27T21:29:47.631Z,96613.06
2022-07-27T21:32:15.495Z,96607.03
2022-07-27T21:34:45.059Z,96609.28
2022-07-27T21:37:13.099Z,96612.13
2022-07-27T21:39:41.029Z,96599.53
2022-07-27T21:42:08.942Z,96605.00
2022-07-27T21:44:37.422Z,96604.25
2022-07-27T21:47:10.107Z,96608.41
2022-07-27T21:49:41.606Z,96597.50
2022-07-27T21:52:11.298Z,96614.22
2022-07-27T21:54:39.946Z,96608.28
2022-07-27T21:57:08.017Z,96606.53
2022-07-27T21:59:36.014Z,96613.13
2022-07-27T22:02:04.101Z,96609.88
2022-07-27T22:04:32.056Z,96614.47
2022-07-27T22:07:00.035Z,96606.69
2022-07-27T22:09:29.344Z,96607.78
2022-07-27T22:11:57.435Z,96603.59
2022-07-27T22:14:25.409Z,96605.75
2022-07-27T22:16:53.987Z,96604.94
2022-07-27T22:19:22.015Z,96599.78
2022-07-27T22:21:50.133Z,96592.03
2022-07-27T22:24:18.449Z,96597.47
2022-07-27T22:26:49.111Z,96603.38
2022-07-27T22:29:17.221Z,96602.91
2022-07-27T22:31:45.320Z,96605.59
2022-07-27T22:34:13.488Z,96614.66
2022-07-27T22:36:41.639Z,96616.03
2022-07-27T22:39:09.529Z,96618.03
2022-07-27T22:41:37.449Z,96620.06
2022-07-27T22:44:06.734Z,96620.25
2022-07-27T22:46:34.777Z,96623.34
2022-07-27T22:49:02.781Z,96621.66
2022-07-27T22:51:48.896Z,96615.47
2022-07-27T22:54:18.760Z,96620.38
2022-07-27T22:56:47.471Z,96625.09
2022-07-27T22:59:16.706Z,96625.78
2022-07-27T23:01:47.266Z,96625.31
2022-07-27T23:04:17.157Z,96621.13
2022-07-27T23:06:45.682Z,96620.66
2022-07-27T23:09:13.747Z,96617.00
2022-07-27T23:11:42.143Z,96625.22
2022-07-27T23:14:10.151Z,96619.38
2022-07-27T23:16:39.615Z,96614.03
2022-07-27T23:19:07.555Z,96623.13
2022-07-27T23:21:35.455Z,96611.56
2022-07-27T23:24:05.555Z,96611.75
2022-07-27T23:26:33.612Z,96619.13
2022-07-27T23:29:02.111Z,96611.06
2022-07-27T23:31:30.158Z,96612.22
2022-07-27T23:33:59.454Z,96615.44
2022-07-27T23:36:27.647Z,96610.56
2022-07-27T23:38:55.693Z,96606.38
2022-07-27T23:41:23.706Z,96600.19
2022-07-27T23:44:03.736Z,96603.03
2022-07-27T23:46:31.882Z,96601.53
2022-07-27T23:49:01.288Z,96594.06
2022-07-27T23:51:29.422Z,96595.56
2022-07-27T23:53:57.414Z,96598.25
2022-07-27T23:56:25.762Z,96598.09
2022-07-27T23:58:53.703Z,96600.56
